Nova Uniao, Brazil
Current Conditions -  °F | °C
As of 2:00 PM on Thursday 27 Nov 2014 (Local Time) from SBLS Reporting Station
Broken Clouds Broken Clouds  
Wind Chill: 79°   Ceiling: 2000
Heat Index: 81°   Visibility: 6mi
Dew Point: 66°   Wind: 7mph
Humidity: 65%   Direction: 340°NNW
Pressure: 29.97"   Gusts: NA
Location:  19.69°S, 43.58°W
Report Text: SBLS 271600Z 34006KT 300V040 9999 BKN020 BKN070 26/19 Q1015
Loading
Personal Weather Stations






























Interactive Weather Map New forecast layout! Learn more

10-Day Weather Forecast

Advertisements
Track Severe Weather on mobile